createdAt,value
2019-04-29T00:01:11.056Z,91.57
2019-04-29T00:03:36.869Z,91.36
2019-04-29T00:06:02.853Z,91.36
2019-04-29T00:08:28.638Z,91.79
2019-04-29T00:10:54.420Z,92.04
2019-04-29T00:13:20.338Z,92.00
2019-04-29T00:16:04.427Z,92.13
2019-04-29T00:18:41.102Z,92.39
2019-04-29T00:21:06.895Z,92.39
2019-04-29T00:23:32.810Z,92.09
2019-04-29T00:25:58.581Z,92.29
2019-04-29T00:28:24.375Z,92.66
2019-04-29T00:30:50.172Z,92.63
2019-04-29T00:33:16.065Z,92.64
2019-04-29T00:35:41.865Z,92.83
2019-04-29T00:38:09.550Z,92.86
2019-04-29T00:40:53.619Z,93.02
2019-04-29T00:43:24.067Z,93.15
2019-04-29T00:45:49.872Z,93.09
2019-04-29T00:48:15.652Z,93.09
2019-04-29T00:50:41.444Z,93.20
2019-04-29T00:53:07.320Z,93.15
2019-04-29T00:55:33.520Z,92.97
2019-04-29T00:57:59.304Z,92.99
2019-04-29T01:00:27.408Z,93.13
2019-04-29T01:02:53.196Z,93.05
2019-04-29T01:05:19.398Z,93.13
2019-04-29T01:07:45.280Z,92.93
2019-04-29T01:10:11.768Z,92.90
2019-04-29T01:12:37.845Z,92.93
2019-04-29T01:15:04.436Z,93.05
2019-04-29T01:17:30.228Z,93.03
2019-04-29T01:19:56.043Z,92.95
2019-04-29T01:22:21.837Z,92.58
2019-04-29T01:24:47.610Z,92.79
2019-04-29T01:27:24.307Z,92.91
2019-04-29T01:29:50.093Z,93.02
2019-04-29T01:32:15.990Z,93.12
2019-04-29T01:34:52.599Z,93.22
2019-04-29T01:37:18.389Z,93.47
2019-04-29T01:40:03.850Z,93.60
2019-04-29T01:42:31.545Z,94.01
2019-04-29T01:44:57.334Z,94.04
2019-04-29T01:47:23.118Z,94.40
2019-04-29T01:49:48.896Z,94.64
2019-04-29T01:52:14.701Z,94.85
2019-04-29T01:54:40.471Z,94.72
2019-04-29T01:57:06.287Z,95.29
2019-04-29T01:59:32.075Z,95.21
2019-04-29T02:01:57.865Z,95.27
2019-04-29T02:04:23.651Z,95.48
2019-04-29T02:06:49.461Z,95.44
2019-04-29T02:09:17.137Z,95.49
2019-04-29T02:11:42.923Z,95.77
2019-04-29T02:14:08.723Z,96.04
2019-04-29T02:16:34.494Z,95.84
2019-04-29T02:19:00.294Z,95.80
2019-04-29T02:21:26.167Z,95.87
2019-04-29T02:23:53.850Z,95.87
2019-04-29T02:26:19.631Z,95.88
2019-04-29T02:28:45.430Z,95.74
2019-04-29T02:31:29.262Z,95.82
2019-04-29T02:33:55.066Z,95.82
2019-04-29T02:36:20.855Z,95.91
2019-04-29T02:38:54.434Z,96.01
2019-04-29T02:41:22.114Z,96.28
2019-04-29T02:43:52.688Z,96.11
2019-04-29T02:46:18.467Z,96.22
2019-04-29T02:48:44.266Z,96.30
2019-04-29T02:51:11.940Z,96.16
2019-04-29T02:53:37.742Z,96.33
2019-04-29T02:56:03.524Z,96.57
2019-04-29T02:58:40.087Z,96.39
2019-04-29T03:01:24.256Z,96.47
2019-04-29T03:04:10.010Z,96.63
2019-04-29T03:06:35.793Z,96.65
2019-04-29T03:09:01.684Z,96.81
2019-04-29T03:11:27.560Z,96.73
2019-04-29T03:13:53.325Z,96.85
2019-04-29T03:16:19.137Z,97.00
2019-04-29T03:18:52.599Z,97.02
2019-04-29T03:21:22.927Z,96.58
2019-04-29T03:23:48.712Z,97.04
2019-04-29T03:26:14.500Z,97.04
2019-04-29T03:28:40.289Z,96.80
2019-04-29T03:31:06.085Z,96.86
2019-04-29T03:33:31.891Z,96.91
2019-04-29T03:35:57.666Z,96.91
2019-04-29T03:38:23.463Z,96.65
2019-04-29T03:40:49.243Z,96.71
2019-04-29T03:43:15.047Z,96.83
2019-04-29T03:45:40.854Z,97.09
2019-04-29T03:48:06.620Z,97.15
2019-04-29T03:50:32.414Z,96.98
2019-04-29T03:52:58.321Z,97.06
2019-04-29T03:55:38.192Z,97.10
2019-04-29T03:57:51.808Z,97.06
2019-04-29T04:00:18.401Z,96.94
2019-04-29T04:02:48.955Z,96.96
2019-04-29T04:05:31.655Z,96.90
2019-04-29T04:07:59.330Z,96.90
2019-04-29T04:10:25.124Z,96.99
2019-04-29T04:12:51.108Z,97.05
2019-04-29T04:15:16.917Z,97.02
2019-04-29T04:17:53.463Z,96.81
2019-04-29T04:20:19.365Z,96.93
2019-04-29T04:22:46.028Z,96.69
2019-04-29T04:25:11.920Z,96.74
2019-04-29T04:27:37.725Z,96.87
2019-04-29T04:30:05.100Z,96.72
2019-04-29T04:32:31.718Z,96.82
2019-04-29T04:34:57.502Z,96.78
2019-04-29T04:37:23.287Z,96.84
2019-04-29T04:39:49.084Z,96.95
2019-04-29T04:42:14.884Z,97.08
2019-04-29T04:44:49.459Z,96.99
2019-04-29T04:47:16.455Z,96.96
2019-04-29T04:49:42.252Z,97.34
2019-04-29T04:52:08.143Z,97.34
2019-04-29T04:54:33.916Z,97.07
2019-04-29T04:56:59.710Z,96.93
2019-04-29T04:59:25.487Z,97.05
2019-04-29T05:01:51.289Z,97.00
2019-04-29T05:04:17.067Z,96.97
2019-04-29T05:06:42.855Z,97.01
2019-04-29T05:09:08.736Z,96.85
2019-04-29T05:11:34.627Z,97.04
2019-04-29T05:14:00.405Z,97.09
2019-04-29T05:16:26.212Z,96.76
2019-04-29T05:18:51.993Z,96.79
2019-04-29T05:21:17.772Z,96.87
2019-04-29T05:23:43.568Z,96.84
2019-04-29T05:26:09.376Z,96.77
2019-04-29T05:28:35.164Z,96.73
2019-04-29T05:31:00.942Z,96.79
2019-04-29T05:33:26.763Z,96.80
2019-04-29T05:36:02.122Z,96.77
2019-04-29T05:38:41.507Z,96.58
2019-04-29T05:41:07.304Z,96.53
2019-04-29T05:43:51.404Z,96.53
2019-04-29T05:46:28.023Z,96.63
2019-04-29T05:48:53.843Z,96.63
2019-04-29T05:51:33.325Z,96.70
2019-04-29T05:54:01.018Z,96.83
2019-04-29T05:56:26.806Z,96.83
2019-04-29T05:58:52.599Z,96.46
2019-04-29T06:01:20.289Z,96.49
2019-04-29T06:03:46.089Z,96.56
2019-04-29T06:06:12.367Z,96.93
2019-04-29T06:08:39.218Z,96.70
2019-04-29T06:11:05.261Z,97.12
2019-04-29T06:13:31.060Z,97.12
2019-04-29T06:15:56.831Z,97.05
2019-04-29T06:18:23.785Z,97.18
2019-04-29T06:20:49.640Z,97.16
2019-04-29T06:23:19.000Z,97.16
2019-04-29T06:25:43.126Z,96.84
2019-04-29T06:28:08.953Z,96.65
2019-04-29T06:30:38.710Z,96.70
2019-04-29T06:33:02.836Z,96.56
2019-04-29T06:35:28.642Z,96.56
2019-04-29T06:37:54.422Z,96.83
2019-04-29T06:40:20.220Z,96.48
2019-04-29T06:42:49.376Z,96.58
2019-04-29T06:45:14.011Z,96.72
2019-04-29T06:47:39.795Z,96.72
2019-04-29T06:50:06.484Z,96.77
2019-04-29T06:52:32.274Z,96.80
2019-04-29T06:54:58.070Z,96.80
2019-04-29T06:57:23.855Z,96.60
2019-04-29T06:59:49.650Z,96.58
2019-04-29T07:02:16.121Z,96.60
2019-04-29T07:04:42.035Z,96.31
2019-04-29T07:07:07.819Z,96.31
2019-04-29T07:09:33.592Z,96.42
2019-04-29T07:12:01.587Z,96.37
2019-04-29T07:14:28.338Z,96.36
2019-04-29T07:16:54.766Z,96.19
2019-04-29T07:19:22.214Z,96.19
2019-04-29T07:21:51.471Z,96.86
2019-04-29T07:24:16.273Z,96.86
2019-04-29T07:26:42.163Z,96.80
2019-04-29T07:29:08.399Z,96.82
2019-04-29T07:31:35.212Z,96.77
2019-04-29T07:34:01.065Z,96.97
2019-04-29T07:36:26.928Z,96.97
2019-04-29T07:38:56.650Z,97.14
2019-04-29T07:41:20.824Z,96.86
2019-04-29T07:43:46.692Z,96.86
2019-04-29T07:46:16.353Z,97.06
2019-04-29T07:48:43.737Z,97.12
2019-04-29T07:51:09.696Z,97.01
2019-04-29T07:53:44.775Z,97.01
2019-04-29T07:56:06.392Z,97.21
2019-04-29T07:58:31.094Z,97.22
2019-04-29T08:00:56.910Z,97.80
2019-04-29T08:03:22.701Z,97.93
2019-04-29T08:05:50.089Z,97.72
2019-04-29T08:08:16.568Z,98.21
2019-04-29T08:10:53.998Z,98.21
2019-04-29T08:13:15.071Z,97.59
2019-04-29T08:15:41.612Z,97.59
2019-04-29T08:18:11.266Z,98.08
2019-04-29T08:20:39.832Z,98.08
2019-04-29T08:23:04.214Z,97.81
2019-04-29T08:25:30.060Z,97.74
2019-04-29T08:27:55.855Z,97.74
2019-04-29T08:30:21.816Z,97.74
2019-04-29T08:32:47.606Z,97.80
2019-04-29T08:35:13.426Z,97.70
2019-04-29T08:37:39.199Z,97.25
2019-04-29T08:40:15.823Z,97.26
2019-04-29T08:42:37.238Z,96.80
2019-04-29T08:45:23.303Z,96.93
2019-04-29T08:47:49.993Z,96.66
2019-04-29T08:50:15.787Z,96.75
2019-04-29T08:52:41.561Z,96.81
2019-04-29T08:55:07.458Z,97.33
2019-04-29T08:57:36.491Z,97.50
2019-04-29T09:00:01.135Z,97.41
2019-04-29T09:02:35.135Z,96.96
2019-04-29T09:04:54.741Z,96.58
2019-04-29T09:07:22.218Z,96.54
2019-04-29T09:09:48.573Z,96.67
2019-04-29T09:12:14.407Z,96.01
2019-04-29T09:14:40.201Z,95.57
2019-04-29T09:17:19.592Z,95.65
2019-04-29T09:19:33.780Z,95.49
2019-04-29T09:22:01.460Z,94.85
2019-04-29T09:24:27.260Z,95.16
2019-04-29T09:26:57.792Z,95.45
2019-04-29T09:29:29.120Z,94.77
2019-04-29T09:31:55.103Z,94.04
2019-04-29T09:34:24.704Z,93.53
2019-04-29T09:36:49.774Z,93.27
2019-04-29T09:39:15.690Z,92.79
2019-04-29T09:41:46.177Z,92.29
2019-04-29T09:44:13.855Z,92.24
2019-04-29T09:46:39.644Z,91.08
2019-04-29T09:49:05.426Z,90.21
2019-04-29T09:51:31.214Z,90.82
2019-04-29T09:53:57.000Z,88.44
2019-04-29T09:56:22.787Z,87.99
2019-04-29T09:58:50.480Z,88.51
2019-04-29T10:01:20.375Z,88.01
2019-04-29T10:03:56.608Z,87.45
2019-04-29T10:06:33.158Z,87.04
2019-04-29T10:08:58.945Z,86.17
2019-04-29T10:11:24.935Z,86.27
2019-04-29T10:13:50.725Z,85.23
2019-04-29T10:16:24.255Z,86.44
2019-04-29T10:18:51.942Z,84.80
2019-04-29T10:21:21.379Z,82.68
2019-04-29T10:23:46.014Z,81.31
2019-04-29T10:26:11.805Z,81.11
2019-04-29T10:28:39.492Z,80.58
2019-04-29T10:31:05.997Z,78.60
2019-04-29T10:33:31.880Z,79.70
2019-04-29T10:35:57.675Z,78.15
2019-04-29T10:38:23.476Z,77.81
2019-04-29T10:41:05.787Z,76.65
2019-04-29T10:43:53.631Z,78.55
2019-04-29T10:46:31.440Z,77.24
2019-04-29T10:49:07.956Z,77.85
2019-04-29T10:51:33.858Z,76.56
2019-04-29T10:53:59.641Z,76.74
2019-04-29T10:56:25.510Z,76.16
2019-04-29T10:58:51.300Z,76.56
2019-04-29T11:01:29.561Z,75.46
2019-04-29T11:04:00.853Z,75.89
2019-04-29T11:06:23.817Z,76.23
2019-04-29T11:08:54.044Z,75.61
2019-04-29T11:11:23.273Z,75.95
2019-04-29T11:13:50.468Z,72.62
2019-04-29T11:16:15.335Z,70.85
2019-04-29T11:18:41.139Z,69.97
2019-04-29T11:21:08.936Z,69.51
2019-04-29T11:23:50.689Z,69.48
2019-04-29T11:26:34.073Z,67.48
2019-04-29T11:28:59.967Z,67.34
2019-04-29T11:31:25.843Z,67.46
2019-04-29T11:33:59.608Z,67.61
2019-04-29T11:36:26.495Z,67.05
2019-04-29T11:38:52.485Z,65.98
2019-04-29T11:41:19.940Z,64.85
2019-04-29T11:43:46.726Z,64.37
2019-04-29T11:46:14.525Z,64.33
2019-04-29T11:48:41.462Z,65.60
2019-04-29T11:51:18.054Z,63.37
2019-04-29T11:53:44.252Z,62.01
2019-04-29T11:56:10.041Z,63.79
2019-04-29T11:58:49.611Z,65.06
2019-04-29T12:01:38.774Z,64.05
2019-04-29T12:04:10.636Z,63.99
2019-04-29T12:06:36.528Z,65.68
2019-04-29T12:09:06.665Z,60.60
2019-04-29T12:11:35.861Z,61.49
2019-04-29T12:14:04.752Z,60.83
2019-04-29T12:16:32.536Z,58.83
2019-04-29T12:19:02.755Z,58.81
2019-04-29T12:21:33.121Z,60.39
2019-04-29T12:23:59.711Z,59.99
2019-04-29T12:26:26.505Z,59.39
2019-04-29T12:28:52.290Z,59.95
2019-04-29T12:31:25.581Z,58.37
2019-04-29T12:33:59.140Z,57.73
2019-04-29T12:36:24.939Z,60.33
2019-04-29T12:38:52.908Z,58.06
2019-04-29T12:41:21.478Z,58.36
2019-04-29T12:43:59.814Z,58.26
2019-04-29T12:46:36.109Z,56.13
2019-04-29T12:49:03.531Z,54.16
2019-04-29T12:51:29.611Z,54.62
2019-04-29T12:53:55.393Z,54.05
2019-04-29T12:56:26.001Z,52.80
2019-04-29T12:58:50.923Z,52.70
2019-04-29T13:01:50.337Z,51.66
2019-04-29T13:04:02.559Z,52.23
2019-04-29T13:06:39.539Z,53.99
2019-04-29T13:09:02.635Z,53.91
2019-04-29T13:11:37.540Z,52.22
2019-04-29T13:14:01.253Z,52.69
2019-04-29T13:16:41.901Z,52.95
2019-04-29T13:19:29.809Z,51.47
2019-04-29T13:21:53.765Z,52.01
2019-04-29T13:24:24.780Z,51.96
2019-04-29T13:26:47.232Z,52.45
2019-04-29T13:29:26.179Z,50.91
2019-04-29T13:31:40.713Z,51.13
2019-04-29T13:34:22.866Z,49.63
2019-04-29T13:36:36.087Z,50.24
2019-04-29T13:39:04.169Z,49.74
2019-04-29T13:41:29.982Z,49.13
2019-04-29T13:44:04.096Z,50.09
2019-04-29T13:46:30.339Z,49.57
2019-04-29T13:49:13.339Z,49.04
2019-04-29T13:51:47.986Z,49.27
2019-04-29T13:54:13.768Z,47.74
2019-04-29T13:56:55.544Z,47.35
2019-04-29T13:59:10.717Z,47.33
2019-04-29T14:01:58.448Z,46.97
2019-04-29T14:04:11.159Z,46.87
2019-04-29T14:06:38.863Z,47.78
2019-04-29T14:09:06.664Z,48.68
2019-04-29T14:11:32.499Z,48.76
2019-04-29T14:13:58.349Z,48.61
2019-04-29T14:16:24.133Z,47.37
2019-04-29T14:18:50.283Z,48.78
2019-04-29T14:21:16.099Z,48.79
2019-04-29T14:23:41.887Z,48.86
2019-04-29T14:26:07.668Z,46.62
2019-04-29T14:28:33.464Z,48.86
2019-04-29T14:30:59.265Z,49.17
2019-04-29T14:33:26.964Z,47.90
2019-04-29T14:35:54.666Z,47.59
2019-04-29T14:38:22.470Z,47.65
2019-04-29T14:40:48.156Z,48.22
2019-04-29T14:43:32.456Z,47.84
2019-04-29T14:46:06.016Z,45.95
2019-04-29T14:48:42.203Z,46.73
2019-04-29T14:51:02.300Z,45.52
2019-04-29T14:53:28.201Z,46.76
2019-04-29T14:55:53.992Z,47.04
2019-04-29T14:58:19.786Z,44.96
2019-04-29T15:00:50.450Z,44.06
2019-04-29T15:03:16.400Z,44.57
2019-04-29T15:05:42.181Z,43.52
2019-04-29T15:08:08.040Z,41.75
2019-04-29T15:10:36.921Z,41.85
2019-04-29T15:13:20.546Z,42.74
2019-04-29T15:16:04.372Z,43.53
2019-04-29T15:18:47.572Z,41.60
2019-04-29T15:20:57.202Z,44.22
2019-04-29T15:23:29.314Z,44.05
2019-04-29T15:25:50.748Z,44.22
2019-04-29T15:28:18.942Z,44.65
2019-04-29T15:30:44.251Z,43.75
2019-04-29T15:33:10.033Z,44.19
2019-04-29T15:35:35.836Z,44.62
2019-04-29T15:38:01.617Z,43.03
2019-04-29T15:40:28.765Z,44.02
2019-04-29T15:42:54.736Z,43.30
2019-04-29T15:45:20.521Z,44.23
2019-04-29T15:47:47.168Z,44.03
2019-04-29T15:50:18.957Z,43.74
2019-04-29T15:52:40.887Z,44.38
2019-04-29T15:55:06.778Z,44.34
2019-04-29T15:57:33.837Z,43.64
2019-04-29T16:00:20.550Z,43.74
2019-04-29T16:02:35.817Z,45.23
2019-04-29T16:05:22.788Z,44.96
2019-04-29T16:07:57.251Z,44.65
2019-04-29T16:10:30.822Z,44.63
2019-04-29T16:13:01.278Z,45.22
2019-04-29T16:15:27.147Z,44.88
2019-04-29T16:17:52.931Z,44.48
2019-04-29T16:20:18.725Z,45.25
2019-04-29T16:22:44.500Z,46.08
2019-04-29T16:25:12.907Z,46.92
2019-04-29T16:27:41.647Z,47.88
2019-04-29T16:30:06.450Z,47.40
2019-04-29T16:32:41.137Z,47.65
2019-04-29T16:35:08.039Z,47.86
2019-04-29T16:37:33.828Z,48.04
2019-04-29T16:40:01.116Z,49.37
2019-04-29T16:42:29.007Z,48.79
2019-04-29T16:44:54.786Z,47.95
2019-04-29T16:47:21.072Z,48.34
2019-04-29T16:49:46.938Z,48.81
2019-04-29T16:52:12.749Z,50.15
2019-04-29T16:54:38.491Z,50.66
2019-04-29T16:57:04.475Z,49.13
2019-04-29T16:59:30.252Z,49.68
2019-04-29T17:01:56.129Z,49.52
2019-04-29T17:04:21.909Z,50.38
2019-04-29T17:07:11.138Z,51.15
2019-04-29T17:09:33.693Z,51.16
2019-04-29T17:12:01.075Z,51.91
2019-04-29T17:14:26.858Z,50.35
2019-04-29T17:16:52.645Z,51.48
2019-04-29T17:19:18.550Z,51.80
2019-04-29T17:21:44.435Z,52.06
2019-04-29T17:24:10.320Z,52.92
2019-04-29T17:26:38.095Z,53.53
2019-04-29T17:29:26.922Z,54.11
2019-04-29T17:31:38.961Z,54.04
2019-04-29T17:34:09.994Z,54.64
2019-04-29T17:36:35.743Z,54.38
2019-04-29T17:39:01.548Z,55.23
2019-04-29T17:41:27.345Z,55.31
2019-04-29T17:44:03.912Z,55.66
2019-04-29T17:46:34.380Z,55.89
2019-04-29T17:49:18.364Z,56.01
2019-04-29T17:51:45.968Z,56.21
2019-04-29T17:54:19.618Z,56.10
2019-04-29T17:57:25.161Z,56.52
2019-04-29T17:59:52.173Z,57.08
2019-04-29T18:02:22.132Z,57.24
2019-04-29T18:05:05.911Z,57.93
2019-04-29T18:07:35.163Z,57.40
2019-04-29T18:10:08.636Z,57.40
2019-04-29T18:12:41.066Z,57.38
2019-04-29T18:15:02.475Z,56.58
2019-04-29T18:17:31.260Z,56.68
2019-04-29T18:20:02.031Z,56.79
2019-04-29T18:22:29.710Z,56.13
2019-04-29T18:24:59.963Z,55.98
2019-04-29T18:27:27.653Z,56.41
2019-04-29T18:29:55.045Z,56.91
2019-04-29T18:32:32.634Z,56.79
2019-04-29T18:34:48.781Z,57.43
2019-04-29T18:37:16.488Z,57.85
2019-04-29T18:39:42.288Z,57.57
2019-04-29T18:42:08.262Z,58.29
2019-04-29T18:44:35.656Z,58.08
2019-04-29T18:47:01.639Z,57.44
2019-04-29T18:49:27.429Z,56.55
2019-04-29T18:51:53.337Z,58.24
2019-04-29T18:54:19.127Z,59.49
2019-04-29T18:56:45.666Z,59.63
2019-04-29T18:59:11.531Z,60.62
2019-04-29T19:01:37.328Z,59.64
2019-04-29T19:04:10.127Z,59.16
2019-04-29T19:06:35.747Z,60.21
2019-04-29T19:09:02.784Z,60.13
2019-04-29T19:11:32.412Z,61.03
2019-04-29T19:13:56.291Z,62.27
2019-04-29T19:16:23.310Z,62.63
2019-04-29T19:18:51.983Z,62.62
2019-04-29T19:21:16.895Z,63.09
2019-04-29T19:23:42.694Z,63.26
2019-04-29T19:26:08.493Z,62.82
2019-04-29T19:28:34.667Z,63.52
2019-04-29T19:31:03.042Z,63.87
2019-04-29T19:33:30.701Z,63.86
2019-04-29T19:35:57.429Z,64.09
2019-04-29T19:38:25.203Z,64.28
2019-04-29T19:40:51.008Z,64.30
2019-04-29T19:43:18.890Z,64.30
2019-04-29T19:45:48.523Z,62.74
2019-04-29T19:48:12.252Z,62.90
2019-04-29T19:50:38.136Z,63.54
2019-04-29T19:53:04.970Z,64.66
2019-04-29T19:55:33.279Z,66.02
2019-04-29T19:58:00.130Z,66.08
2019-04-29T20:00:29.289Z,66.08
2019-04-29T20:02:59.404Z,65.92
2019-04-29T20:05:50.220Z,66.94
2019-04-29T20:08:37.875Z,67.10
2019-04-29T20:10:48.219Z,66.90
2019-04-29T20:13:12.501Z,67.58
2019-04-29T20:15:45.451Z,67.33
2019-04-29T20:18:23.734Z,67.33
2019-04-29T20:20:47.800Z,67.33
2019-04-29T20:23:15.753Z,67.55
2019-04-29T20:25:41.709Z,67.58
2019-04-29T20:28:12.661Z,68.78
2019-04-29T20:30:35.460Z,68.50
2019-04-29T20:33:08.729Z,68.50
2019-04-29T20:35:29.256Z,68.86
2019-04-29T20:37:56.701Z,68.96
2019-04-29T20:40:22.876Z,69.80
2019-04-29T20:42:49.525Z,69.80
2019-04-29T20:45:15.762Z,69.63
2019-04-29T20:47:45.432Z,69.54
2019-04-29T20:50:13.970Z,69.84
2019-04-29T20:52:47.162Z,70.30
2019-04-29T20:55:13.374Z,70.30
2019-04-29T20:57:39.980Z,71.07
2019-04-29T21:00:06.936Z,71.47
2019-04-29T21:02:35.369Z,71.96
2019-04-29T21:05:00.646Z,72.18
2019-04-29T21:07:26.505Z,72.18
2019-04-29T21:09:52.293Z,72.26
2019-04-29T21:12:20.671Z,72.75
2019-04-29T21:14:48.547Z,73.36
2019-04-29T21:17:27.958Z,73.42
2019-04-29T21:19:42.128Z,73.28
2019-04-29T21:22:07.905Z,73.75
2019-04-29T21:24:35.341Z,73.83
2019-04-29T21:27:01.191Z,73.75
2019-04-29T21:29:27.210Z,74.17
2019-04-29T21:31:58.395Z,74.20
2019-04-29T21:34:22.589Z,75.23
2019-04-29T21:36:52.977Z,75.23
2019-04-29T21:39:26.431Z,75.27
2019-04-29T21:42:05.983Z,75.56
2019-04-29T21:44:31.806Z,76.10
2019-04-29T21:46:59.541Z,76.54
2019-04-29T21:49:25.774Z,76.78
2019-04-29T21:51:51.729Z,76.60
2019-04-29T21:54:17.511Z,76.81
2019-04-29T21:56:44.445Z,76.56
2019-04-29T21:59:12.323Z,76.16
2019-04-29T22:01:38.271Z,76.37
2019-04-29T22:04:04.440Z,75.89
2019-04-29T22:06:30.237Z,76.07
2019-04-29T22:09:01.258Z,75.92
2019-04-29T22:11:25.411Z,76.50
2019-04-29T22:13:51.480Z,76.05
2019-04-29T22:16:17.468Z,76.81
2019-04-29T22:18:44.773Z,77.17
2019-04-29T22:21:16.895Z,77.41
2019-04-29T22:23:38.664Z,77.08
2019-04-29T22:26:05.065Z,76.93
2019-04-29T22:28:30.944Z,76.80
2019-04-29T22:30:56.926Z,77.08
2019-04-29T22:33:22.711Z,77.47
2019-04-29T22:35:48.528Z,77.14
2019-04-29T22:38:16.273Z,77.34
2019-04-29T22:40:42.896Z,77.39
2019-04-29T22:43:10.773Z,77.88
2019-04-29T22:45:36.635Z,77.86
2019-04-29T22:48:14.204Z,78.15
2019-04-29T22:50:33.607Z,78.14
2019-04-29T22:53:01.176Z,78.33
2019-04-29T22:55:25.839Z,78.09
2019-04-29T22:57:51.913Z,78.43
2019-04-29T23:00:19.721Z,78.35
2019-04-29T23:02:45.671Z,78.51
2019-04-29T23:05:11.631Z,78.93
2019-04-29T23:07:37.767Z,78.89
2019-04-29T23:10:05.715Z,78.90
2019-04-29T23:12:31.605Z,78.82
2019-04-29T23:14:58.533Z,79.07
2019-04-29T23:17:25.494Z,78.83
2019-04-29T23:19:53.303Z,78.79
2019-04-29T23:22:37.478Z,79.21
2019-04-29T23:25:05.713Z,79.00
2019-04-29T23:27:31.563Z,79.29
2019-04-29T23:29:57.383Z,79.72
2019-04-29T23:32:25.225Z,79.47
2019-04-29T23:34:50.930Z,79.43
2019-04-29T23:37:19.536Z,79.42
2019-04-29T23:39:45.700Z,79.22
2019-04-29T23:42:12.707Z,79.58
2019-04-29T23:44:42.489Z,80.43
2019-04-29T23:47:10.244Z,79.95
2019-04-29T23:49:42.352Z,79.99
2019-04-29T23:52:02.595Z,79.98
2019-04-29T23:54:28.501Z,79.97
2019-04-29T23:57:02.074Z,80.45
2019-04-29T23:59:41.667Z,80.39
